Terminal Aerodrome Forecast
Issued by NWS

Home | Current Version | Previous Version | Text Only | Print | Product List | Glossary On
Versions: 1 2 3 4 5 6 7 8 9 10 11 12 13
440
FTUS43 KLSX 061730
TAFCPS
TAF
KCPS 061730Z 0618/0718 31011G19KT P6SM OVC015
     FM062100 31012G19KT P6SM SCT030
     FM062200 31010KT P6SM SCT200
     FM070000 31006KT P6SM FEW250
     FM071300 00000KT P6SM BKN120=

USA.gov is the U.S. government's official web portal to all federal, state and local government web resources and services.